Aérodrome :
LOGIN :

S'inscrire | Disclaimer

   EN    FR    IT 

 










Légende :    VFR   VFR Marginal   IFR   IFR Intensif   IFR Très Intensif
Visi : 
Plafond : 
>= 8 km
>= 3000ft
5 à 8 km
1000 à 3000 ft
1500m à 5 km
500 à 1000 ft
800 à 1500m
200 à 500 ft
< 800m
< 200 ft
Symboles :   Orages  Brouillard  Fortes neiges  Fortes précipitations  Vent > 20 kt
SIGMETs :   Divers  Orages  Givrage  Turbulence  Onde Orograph.  Cendres Volcan.






- Altitude de l'aérodrome : 266 ft
- Code IATA : NCL


EGNT - Newcastle

DERNIER METAR :
  • 140720Z 26020G32KT 9999 FEW022 04/02 Q0975

METARs EXPIRÉS :
  • 140650Z 26017KT 9999 FEW020 04/02 Q0975
  • 140620Z 26018G28KT 9999 SCT022 04/02 Q0975
  • 140550Z 26017G27KT 9999 FEW018 04/02 Q0975
  • 140520Z 26017KT 9999 FEW018 04/02 Q0974
  • 140450Z 26017KT CAVOK 04/02 Q0974

TAF TAF EGNT
Valide du 14 à 06h jusqu'au 15 à 06h UTC


140455Z 1406/1506 26015KT 9999 FEW010 SCT030
TEMPO 1406/1421 27018G28KT
PROB30
TEMPO 1406/1412 6000 SHRA BKN010
BECMG 1421/1424 18006KT
PROB30
TEMPO 1423/1506 8000 -RA BKN014
ATIS : +44 191 214 3400



MET'MAP, la Météo Aéronautique d'un coup d'oeil ! - Copyright ORBIFLY Décembre 2007 - Disclaimer

ORBIFLY MET'MAP TEAM :

Programmation & Développement : Alexandra Zaïnal
Sur une idée originale de : Baudouin d'Aumeries
Assistance à la programmation : Marc-Olivier Méhu
Soutien technique & logistique : Manuel Goepfert

Contact : metmap@orbifly.com




SOURCES & CREDITS :

   NOAA